Cuovddatmohkki, Norway

10:52 PM CET on December 06, 2016 (GMT +0100)
Alta | | Change Station

Elev 10 ft 69.98 °N, 23.36 °E | Updated 1 hour ago

Mostly Cloudy
Mostly Cloudy
32 °F
Feels Like 25 °F
N
8
Wind Variable Wind from ENE

Today
High -- | Low -- °F
--% Chance of Precip.
Yesterday
High -- | Low -- °F
Precip. -- in
Pressure 29.33 in
Visibility 6.2 miles
Clouds Scattered Clouds 2900 ft
Mostly Cloudy 3900 ft
Windchill 25 °F
Dew Point 25 °F
Humidity 75%
Rainfall 0.00 in
Snow Depth Not available.
10:41 AM 11:45 AM
Waxing Crescent, 45% visible
METAR ENAT 062050Z 07007KT 030V110 9999 SCT029 BKN039 M00/M04 Q0993 RMK WIND 700FT VRB06KT
Pressure 29.33 in
Visibility 6.2 miles
Clouds Scattered Clouds 2900 ft
Mostly Cloudy 3900 ft
Windchill 25 °F
Dew Point 25 °F
Humidity 75%
Rainfall 0.00 in
Snow Depth Not available.
10:41 AM 11:45 AM
Waxing Crescent, 45% visible
METAR ENAT 062050Z 07007KT 030V110 9999 SCT029 BKN039 M00/M04 Q0993 RMK WIND 700FT VRB06KT

10-Day Weather Forecast

×

Almanac

Astronomy

Dec. 06, 2016 Rise Set
Actual Time
Civil Twilight
Nautical Twilight
Astronomical Twilight
Moon
Length of Visible Light
Length of Day
Tomorrow will be .
, % of the Moon is Illuminated

Today's Extremes

Country Highs Country Lows

Community

WunderPhotos

Upload Photos

1,956,033 photos uploaded!

WunderBlog® & News

Nearby

Air Quality

  Air Quality AQ Index Pollutant
Not available.

Snow Depth

Station Depth Elevation

Earthquake Activity

City Distance Mag. Time & Date
Minimum magnitude displayed is 2.5.

Coastal Water Temperatures

Place Temperature

Stations

Nearby Weather Stations

Station Location Temp. Windchill Dew Point Humidity Wind Precip. Elev Updated Type